Kanainj Airport


Codes: AYKJ/KNE
Name: Kanainj Airport
City: Kanainj
Country: Papua New Guinea
Elevation: 4064 ft.

Photos at Kanainj Airport


   Photos courtesy of SpottingLog. You can add your own sightings and photos by signing up for a free trial today.



No photos found.

Weather at Kanainj Airport


Time (UTC)DescriptionTempratureWindCloud coverageVisibilityPressureHumidity
21-Jun-2024 12:00Light Rain16°C2 mph, SW100%10000m1013hPa92%
21-Jun-2024 15:00Light Rain16°C4 mph, SW100%10000m1013hPa91%
21-Jun-2024 18:00Overcast Clouds15°C2 mph, SW100%10000m1013hPa91%
21-Jun-2024 21:00Light Rain15°C2 mph, SW98%10000m1014hPa89%
22-Jun-2024 00:00Light Rain20°C2 mph, NE99%9090m1015hPa76%
22-Jun-2024 03:00Light Rain22°C4 mph, NE100%10000m1012hPa72%
22-Jun-2024 06:00Light Rain21°C2 mph, NE100%10000m1010hPa75%
22-Jun-2024 09:00Light Rain16°C0 mph, SW95%10000m1013hPa96%
22-Jun-2024 12:00Light Rain16°C2 mph, SW93%10000m1014hPa98%
22-Jun-2024 15:00Light Rain15°C2 mph, SW80%10000m1013hPa97%
22-Jun-2024 18:00Broken Clouds14°C4 mph, SW76%10000m1013hPa96%
22-Jun-2024 21:00Scattered Clouds15°C4 mph, SW49%10000m1014hPa94%
23-Jun-2024 00:00Scattered Clouds22°C4 mph, E36%10000m1013hPa66%
23-Jun-2024 03:00Light Rain23°C4 mph, NE94%10000m1011hPa64%
23-Jun-2024 06:00Light Rain22°C4 mph, NE98%10000m1009hPa66%
23-Jun-2024 09:00Overcast Clouds17°C2 mph, SW93%10000m1011hPa93%
23-Jun-2024 12:00Broken Clouds16°C2 mph, SW75%10000m1013hPa90%
23-Jun-2024 15:00Broken Clouds15°C4 mph, SW67%10000m1012hPa87%
23-Jun-2024 18:00Broken Clouds15°C4 mph, SW59%10000m1011hPa86%
23-Jun-2024 21:00Clear Sky15°C2 mph, SW4%10000m1012hPa83%
24-Jun-2024 00:00Clear Sky22°C4 mph, E4%10000m1012hPa60%
24-Jun-2024 03:00Light Rain24°C4 mph, NE32%10000m1009hPa59%
24-Jun-2024 06:00Light Rain22°C4 mph, NE37%10000m1008hPa69%
24-Jun-2024 09:00Light Rain17°C0 mph, S100%10000m1011hPa97%
24-Jun-2024 12:00Light Rain16°C2 mph, SW98%10000m1013hPa98%
24-Jun-2024 15:00Light Rain15°C2 mph, SW64%10000m1013hPa97%
24-Jun-2024 18:00Broken Clouds14°C4 mph, SW78%10000m1012hPa95%
24-Jun-2024 21:00Broken Clouds14°C4 mph, SW64%10000m1013hPa91%
25-Jun-2024 00:00Broken Clouds22°C4 mph, E59%10000m1013hPa60%
25-Jun-2024 03:00Scattered Clouds24°C4 mph, NE36%10000m1010hPa55%
25-Jun-2024 06:00Light Rain23°C4 mph, NE68%10000m1009hPa61%
25-Jun-2024 09:00Overcast Clouds17°C2 mph, SW100%10000m1012hPa94%
25-Jun-2024 12:00Overcast Clouds16°C2 mph, W98%10000m1014hPa92%
25-Jun-2024 15:00Overcast Clouds15°C4 mph, SW98%10000m1013hPa89%
25-Jun-2024 18:00Overcast Clouds15°C4 mph, SW99%10000m1013hPa87%
25-Jun-2024 21:00Overcast Clouds15°C2 mph, SW99%10000m1014hPa85%
26-Jun-2024 00:00Broken Clouds22°C4 mph, NE55%10000m1013hPa62%
26-Jun-2024 03:00Scattered Clouds25°C4 mph, NE45%10000m1010hPa54%
26-Jun-2024 06:00Broken Clouds23°C4 mph, NE51%10000m1009hPa59%
26-Jun-2024 09:00Broken Clouds17°C2 mph, SW78%10000m1012hPa85%